Time;durP1;ratioP1;P1;durP2;ratioP2;P2;SDS_P1;SDS_P2;PMS_P1;PMS_P2;Temp;Humidity;BMP_temperature;BMP_pressure;BME280_temperature;BME280_humidity;BME280_pressure;Samples;Min_cycle;Max_cycle;Signal;HPM_P1;HPM_P2
2020/12/17 00:00:20;;;;;;;13.47;12.17;;;;;;;9.43;84.63;96566.72;5077121;28;20241;-63
2020/12/17 00:02:46;;;;;;;11.50;10.40;;;;;;;9.22;86.41;96562.63;5073286;28;20446;-63
2020/12/17 00:05:11;;;;;;;11.57;10.37;;;;;;;9.01;87.99;96554.28;5073481;28;20405;-64
2020/12/17 00:07:38;;;;;;;11.43;10.37;;;;;;;8.98;88.84;96562.59;5072620;28;20714;-63
2020/12/17 00:10:08;;;;;;;11.30;10.10;;;;;;;9.08;88.69;96558.47;5073087;28;20541;-63
2020/12/17 00:12:38;;;;;;;10.83;9.73;;;;;;;9.28;87.96;96558.34;5073063;28;20505;-64
2020/12/17 00:15:05;;;;;;;10.67;9.57;;;;;;;9.37;87.41;96551.81;5073153;28;20432;-63
2020/12/17 00:17:31;;;;;;;10.43;9.40;;;;;;;9.47;86.95;96554.78;5072889;28;20945;-73
2020/12/17 00:19:57;;;;;;;10.67;9.70;;;;;;;9.08;88.33;96548.00;5072977;28;20513;-63
2020/12/17 00:22:23;;;;;;;10.40;9.30;;;;;;;9.07;88.73;96550.84;5072953;28;20436;-74
2020/12/17 00:24:48;;;;;;;10.73;9.73;;;;;;;9.20;87.96;96548.13;5073133;28;20445;-74
2020/12/17 00:27:13;;;;;;;11.20;9.47;;;;;;;8.87;89.02;96539.66;5072336;28;20198;-73
2020/12/17 00:29:39;;;;;;;10.03;8.90;;;;;;;9.18;88.12;96537.06;5077819;28;20192;-65
2020/12/17 00:32:04;;;;;;;8.80;8.00;;;;;;;9.29;88.00;96539.00;5089791;28;20174;-72
2020/12/17 00:34:30;;;;;;;8.70;7.77;;;;;;;9.38;87.08;96536.91;5093299;28;20217;-63
2020/12/17 00:36:55;;;;;;;9.30;8.40;;;;;;;9.60;86.19;96546.78;5093027;28;20218;-64
2020/12/17 00:39:21;;;;;;;9.73;8.57;;;;;;;9.63;85.62;96543.75;5093111;28;20201;-74
2020/12/17 00:41:47;;;;;;;8.80;8.00;;;;;;;9.42;86.27;96548.59;5093313;28;20170;-74
2020/12/17 00:44:13;;;;;;;9.13;8.20;;;;;;;9.45;87.03;96538.47;5093073;28;20726;-64
2020/12/17 00:46:39;;;;;;;8.03;7.30;;;;;;;9.67;85.40;96541.50;5094591;28;20446;-64
2020/12/17 00:49:04;;;;;;;9.00;8.10;;;;;;;9.75;84.84;96543.84;5095260;28;20440;-74
2020/12/17 00:51:29;;;;;;;9.00;8.20;;;;;;;9.72;84.34;96539.84;5097440;28;20524;-74
2020/12/17 00:53:55;;;;;;;8.83;7.93;;;;;;;9.67;85.11;96544.94;5097360;28;20642;-63
2020/12/17 00:56:20;;;;;;;8.50;7.80;;;;;;;9.34;86.59;96553.06;5096619;28;20228;-65
2020/12/17 00:58:45;;;;;;;9.23;8.37;;;;;;;9.33;86.70;96555.88;5096869;28;20168;-74
2020/12/17 01:01:11;;;;;;;9.03;8.30;;;;;;;9.62;84.97;96552.63;5097020;28;20174;-65
2020/12/17 01:03:36;;;;;;;8.87;8.07;;;;;;;9.48;85.13;96550.31;5095226;28;20242;-74
2020/12/17 01:06:02;;;;;;;9.43;8.63;;;;;;;9.30;86.28;96551.88;5096999;28;20164;-64
2020/12/17 01:08:27;;;;;;;9.50;8.60;;;;;;;9.55;84.79;96553.72;5096477;28;20175;-64
2020/12/17 01:10:54;;;;;;;8.80;8.00;;;;;;;9.68;83.56;96549.16;5096703;28;20199;-73
2020/12/17 01:13:20;;;;;;;10.20;7.37;;;;;;;9.70;83.22;96547.13;5096718;28;20220;-74
2020/12/17 01:15:46;;;;;;;9.60;8.70;;;;;;;9.61;83.39;96548.41;5096772;28;20509;-64
2020/12/17 01:18:12;;;;;;;9.40;8.40;;;;;;;9.47;84.32;96551.38;5096080;28;20495;-74
2020/12/17 01:20:38;;;;;;;10.50;8.33;;;;;;;9.21;85.51;96555.78;5096595;28;20919;-64
2020/12/17 01:23:03;;;;;;;10.20;8.50;;;;;;;9.38;84.81;96551.63;5096426;28;20534;-63
2020/12/17 01:25:28;;;;;;;9.10;8.20;;;;;;;9.30;84.79;96548.47;5096366;28;20574;-73
2020/12/17 01:27:54;;;;;;;8.87;7.97;;;;;;;9.36;84.13;96545.00;5096015;28;20189;-64
2020/12/17 01:30:19;;;;;;;9.40;8.47;;;;;;;9.45;83.94;96546.34;5094444;28;20205;-73
2020/12/17 01:32:44;;;;;;;9.63;8.73;;;;;;;9.60;83.05;96551.25;5096465;28;20171;-73
2020/12/17 01:35:10;;;;;;;9.50;8.70;;;;;;;9.65;82.50;96554.03;5096290;28;20257;-74
2020/12/17 01:37:35;;;;;;;9.50;8.67;;;;;;;9.62;81.97;96550.00;5095899;28;20175;-64
2020/12/17 01:40:01;;;;;;;8.73;7.83;;;;;;;9.33;83.48;96550.63;5096103;28;20705;-63
2020/12/17 01:42:26;;;;;;;9.03;8.23;;;;;;;9.35;82.95;96559.09;5096101;28;20671;-74
2020/12/17 01:44:52;;;;;;;9.37;8.50;;;;;;;9.38;83.21;96564.72;5096087;28;20170;-63
2020/12/17 01:47:18;;;;;;;8.07;7.37;;;;;;;9.20;84.36;96559.41;5093311;28;20197;-74
2020/12/17 01:49:45;;;;;;;8.07;7.37;;;;;;;9.08;84.41;96558.47;5076149;28;20678;-64
2020/12/17 01:52:11;;;;;;;8.37;7.57;;;;;;;8.88;86.32;96557.78;5095768;28;20229;-63
2020/12/17 01:54:36;;;;;;;8.33;7.50;;;;;;;8.66;87.35;96569.59;5095800;28;20393;-72
2020/12/17 01:57:03;;;;;;;8.57;7.70;;;;;;;8.57;88.31;96567.44;5095574;28;20309;-73
2020/12/17 01:59:42;;;;;;;9.10;7.07;;;;;;;8.63;87.85;96571.81;5095051;28;20624;-74
2020/12/17 02:02:10;;;;;;;7.97;7.20;;;;;;;8.71;87.55;96566.34;5076261;28;20805;-63
2020/12/17 02:04:35;;;;;;;8.20;7.13;;;;;;;8.61;88.03;96582.50;5076450;28;20546;-63
2020/12/17 02:07:00;;;;;;;7.83;7.03;;;;;;;8.53;88.72;96581.94;5074957;28;20962;-73
2020/12/17 02:09:26;;;;;;;6.70;6.10;;;;;;;8.47;88.96;96583.56;5075420;28;20230;-64
2020/12/17 02:11:56;;;;;;;8.47;7.40;;;;;;;8.48;88.85;96582.53;5075251;28;20179;-73
2020/12/17 02:14:23;;;;;;;8.70;7.43;;;;;;;8.60;88.14;96577.47;5075261;28;20250;-64
2020/12/17 02:16:48;;;;;;;8.23;7.53;;;;;;;8.52;88.89;96585.56;5074840;28;20424;-63
2020/12/17 02:19:14;;;;;;;8.33;7.53;;;;;;;8.62;88.40;96585.94;5076089;28;20453;-64
2020/12/17 02:21:40;;;;;;;9.80;6.87;;;;;;;8.84;86.96;96584.63;5075240;28;20178;-73
2020/12/17 02:24:05;;;;;;;7.53;6.83;;;;;;;9.04;86.02;96587.97;5074959;28;20865;-73
2020/12/17 02:26:31;;;;;;;10.07;7.30;;;;;;;9.19;85.05;96589.28;5074847;28;20166;-73
2020/12/17 02:28:57;;;;;;;7.90;7.20;;;;;;;9.31;84.06;96589.41;5074875;28;20183;-63
2020/12/17 02:31:26;;;;;;;8.17;7.47;;;;;;;9.30;83.68;96585.16;5076044;28;20930;-74
2020/12/17 02:33:51;;;;;;;7.97;7.17;;;;;;;9.34;82.67;96589.78;5073894;28;20184;-64
2020/12/17 02:36:17;;;;;;;8.27;7.47;;;;;;;9.35;82.25;96582.69;5074607;28;20754;-72
2020/12/17 02:38:44;;;;;;;7.87;7.13;;;;;;;9.30;82.06;96591.22;5074669;28;20171;-64
2020/12/17 02:41:09;;;;;;;8.60;7.60;;;;;;;9.22;82.38;96591.47;5074799;28;20212;-73
2020/12/17 02:43:35;;;;;;;7.97;7.17;;;;;;;9.23;82.50;96584.41;5074938;28;20515;-64
2020/12/17 02:46:00;;;;;;;7.23;6.70;;;;;;;9.28;82.23;96584.56;5075923;28;20182;-64
2020/12/17 02:48:26;;;;;;;8.20;7.40;;;;;;;9.30;81.53;96582.53;5074244;28;20533;-63
2020/12/17 02:50:51;;;;;;;7.97;7.17;;;;;;;9.29;81.64;96576.47;5075076;28;20190;-72
2020/12/17 02:53:16;;;;;;;8.60;7.80;;;;;;;9.11;81.99;96583.47;5075086;28;20506;-63
2020/12/17 02:55:42;;;;;;;9.00;7.87;;;;;;;8.68;84.99;96583.28;5074438;28;20189;-73
2020/12/17 02:58:07;;;;;;;8.60;7.80;;;;;;;8.70;85.90;96580.44;5075088;28;20213;-73
2020/12/17 03:00:33;;;;;;;8.40;7.60;;;;;;;8.80;85.56;96578.19;5074320;28;20190;-74
2020/12/17 03:02:59;;;;;;;8.53;7.53;;;;;;;8.53;87.74;96579.31;5074306;28;20201;-64
2020/12/17 03:05:24;;;;;;;8.80;8.00;;;;;;;8.53;87.88;96574.09;5074227;28;20415;-69
2020/12/17 03:07:50;;;;;;;7.40;6.70;;;;;;;8.37;88.95;96572.72;5074137;28;20254;-63
2020/12/17 03:10:16;;;;;;;8.90;7.70;;;;;;;8.44;88.87;96584.00;5073350;28;20575;-73
2020/12/17 03:12:42;;;;;;;10.83;8.73;;;;;;;8.58;88.48;96587.34;5074207;28;20261;-73
2020/12/17 03:15:09;;;;;;;11.43;8.90;;;;;;;8.47;89.69;96593.22;5090132;28;20193;-64
2020/12/17 03:17:35;;;;;;;11.40;9.67;;;;;;;8.25;90.76;96590.88;5094199;28;20408;-73
2020/12/17 03:20:00;;;;;;;10.77;9.67;;;;;;;8.44;89.87;96584.00;5094451;28;20851;-65
2020/12/17 03:22:26;;;;;;;11.57;9.53;;;;;;;8.54;89.56;96586.16;5094301;28;20487;-74
2020/12/17 03:24:51;;;;;;;11.43;9.90;;;;;;;8.42;89.91;96588.63;5092957;28;20656;-64
2020/12/17 03:27:17;;;;;;;10.67;9.57;;;;;;;8.26;90.62;96592.47;5091780;28;20238;-74
2020/12/17 03:29:42;;;;;;;12.90;11.27;;;;;;;8.32;91.00;96588.22;5093879;28;20564;-64
2020/12/17 03:32:07;;;;;;;11.43;10.30;;;;;;;8.22;91.37;96587.84;5094087;28;20180;-73
2020/12/17 03:34:33;;;;;;;14.00;11.80;;;;;;;8.35;90.72;96585.22;5093976;28;20650;-64
2020/12/17 03:36:58;;;;;;;11.70;10.47;;;;;;;8.16;91.68;96591.25;5093341;28;20542;-74
2020/12/17 03:39:23;;;;;;;12.07;10.90;;;;;;;8.12;92.35;96593.50;5093910;28;20193;-73
2020/12/17 03:41:49;;;;;;;12.77;11.40;;;;;;;7.97;92.52;96599.97;5086093;28;20728;-73
2020/12/17 03:44:14;;;;;;;15.63;10.37;;;;;;;8.10;92.27;96590.28;5073640;28;20206;-63
2020/12/17 03:46:40;;;;;;;12.57;11.20;;;;;;;8.07;92.38;96595.94;5089880;28;20215;-73
2020/12/17 03:49:05;;;;;;;13.00;11.00;;;;;;;8.07;91.76;96593.31;5076203;28;20197;-64
2020/12/17 03:51:30;;;;;;;11.73;10.53;;;;;;;8.00;92.10;96597.75;5073441;28;20253;-74
2020/12/17 03:53:56;;;;;;;12.07;10.40;;;;;;;8.20;91.41;96597.72;5073465;28;20647;-66
2020/12/17 03:56:21;;;;;;;11.93;10.60;;;;;;;8.19;90.62;96598.69;5073955;28;20246;-65
2020/12/17 03:58:47;;;;;;;12.53;11.23;;;;;;;8.13;90.91;96599.53;5073223;28;20180;-63
2020/12/17 04:01:12;;;;;;;13.07;11.40;;;;;;;8.20;90.81;96602.94;5073587;28;20664;-63
2020/12/17 04:03:37;;;;;;;12.80;10.77;;;;;;;7.84;92.43;96606.03;5073375;28;20230;-73
2020/12/17 04:06:03;;;;;;;12.47;11.17;;;;;;;7.91;92.64;96601.59;5073334;28;20223;-64
2020/12/17 04:08:28;;;;;;;13.63;11.77;;;;;;;8.12;91.58;96603.97;5072894;28;20712;-63
2020/12/17 04:10:53;;;;;;;15.53;13.00;;;;;;;8.19;90.55;96601.31;5091304;28;20223;-63
2020/12/17 04:13:19;;;;;;;15.33;11.67;;;;;;;8.19;90.48;96599.50;5093377;28;20640;-63
2020/12/17 04:15:44;;;;;;;12.93;11.57;;;;;;;8.24;90.01;96597.09;5093351;28;20177;-63
2020/12/17 04:18:10;;;;;;;12.87;11.53;;;;;;;8.18;90.18;96597.91;5093000;28;20179;-64
2020/12/17 04:20:35;;;;;;;13.27;11.00;;;;;;;8.40;89.26;96598.50;5092872;28;20278;-64
2020/12/17 04:23:00;;;;;;;12.60;11.30;;;;;;;8.17;89.77;96598.91;5091550;28;20728;-73
2020/12/17 04:25:26;;;;;;;12.90;11.27;;;;;;;8.26;89.77;96605.56;5093328;28;20176;-63
2020/12/17 04:27:52;;;;;;;12.17;11.00;;;;;;;8.56;87.96;96595.41;5092834;28;20181;-74
2020/12/17 04:30:17;;;;;;;10.73;9.63;;;;;;;8.50;88.28;96600.69;5093171;28;20482;-74
2020/12/17 04:32:43;;;;;;;11.10;9.90;;;;;;;8.46;88.31;96607.34;5093451;28;20499;-64
2020/12/17 04:35:08;;;;;;;11.83;10.63;;;;;;;8.05;89.97;96608.41;5093290;28;20169;-64
2020/12/17 04:37:33;;;;;;;13.30;10.37;;;;;;;8.06;89.96;96607.38;5083341;28;20191;-74
2020/12/17 04:39:59;;;;;;;11.33;10.13;;;;;;;8.03;90.21;96604.38;5073046;28;20192;-64
2020/12/17 04:42:25;;;;;;;10.47;9.37;;;;;;;8.14;89.90;96601.13;5073034;28;20589;-74
2020/12/17 04:44:51;;;;;;;11.30;9.73;;;;;;;8.13;88.85;96605.56;5077971;28;20198;-63
2020/12/17 04:47:20;;;;;;;10.40;9.13;;;;;;;8.35;88.46;96603.56;5090417;28;20492;-64
2020/12/17 04:49:52;;;;;;;10.23;9.23;;;;;;;8.43;87.93;96605.94;5073563;28;20443;-73
2020/12/17 04:52:22;;;;;;;11.00;9.27;;;;;;;8.66;86.11;96597.59;5072938;28;20420;-63
2020/12/17 04:54:48;;;;;;;10.33;9.23;;;;;;;8.64;85.75;96595.16;5072751;28;20760;-73
2020/12/17 04:57:15;;;;;;;9.87;8.57;;;;;;;8.56;86.62;96592.81;5072474;28;20408;-63
2020/12/17 04:59:43;;;;;;;12.03;9.90;;;;;;;8.53;86.57;96590.59;5072684;28;20432;-64
2020/12/17 05:02:09;;;;;;;11.00;9.30;;;;;;;8.53;86.22;96593.22;5072621;28;20496;-74
2020/12/17 05:04:40;;;;;;;10.50;9.40;;;;;;;8.68;85.49;96598.22;5075599;28;20966;-74
2020/12/17 05:07:08;;;;;;;10.83;9.53;;;;;;;8.57;85.52;96598.84;5092630;28;20417;-74
2020/12/17 05:09:38;;;;;;;10.37;9.30;;;;;;;8.60;85.73;96607.09;5092838;28;20500;-74
2020/12/17 05:12:04;;;;;;;10.00;9.00;;;;;;;8.40;86.12;96605.53;5093086;28;20778;-63
2020/12/17 05:14:30;;;;;;;9.90;8.43;;;;;;;8.39;86.50;96603.94;5092770;28;20454;-73
2020/12/17 05:16:56;;;;;;;8.30;7.50;;;;;;;8.41;85.76;96601.94;5092585;28;20883;-74
2020/12/17 05:19:24;;;;;;;9.00;7.67;;;;;;;8.30;85.82;96605.97;5090972;28;20189;-74
2020/12/17 05:21:50;;;;;;;9.57;8.17;;;;;;;8.21;86.28;96620.25;5093010;28;20413;-64
2020/12/17 05:24:15;;;;;;;8.77;7.80;;;;;;;7.98;87.28;96631.16;5093050;28;20538;-64
2020/12/17 05:26:41;;;;;;;9.90;8.90;;;;;;;7.72;88.55;96635.59;5090694;28;20253;-63
2020/12/17 05:29:06;;;;;;;8.17;7.37;;;;;;;7.69;89.04;96642.03;5092332;28;20200;-65
2020/12/17 05:31:33;;;;;;;8.33;7.43;;;;;;;7.51;90.62;96640.97;5092603;28;20171;-64
2020/12/17 05:34:05;;;;;;;10.67;8.37;;;;;;;7.55;90.05;96650.88;5077634;28;20221;-64
2020/12/17 05:36:31;;;;;;;9.50;8.20;;;;;;;7.32;90.95;96645.97;5075688;28;20465;-65
2020/12/17 05:39:08;;;;;;;12.60;9.00;;;;;;;7.26;91.24;96635.53;5076044;28;20416;-63
2020/12/17 05:41:35;;;;;;;9.43;8.37;;;;;;;7.43;90.42;96647.19;5079037;28;20418;-71
2020/12/17 05:44:14;;;;;;;9.30;8.43;;;;;;;7.68;88.96;96648.22;5096008;28;20484;-64
2020/12/17 05:46:44;;;;;;;8.80;7.90;;;;;;;7.72;88.01;96649.44;5093810;28;20418;-74
2020/12/17 05:49:27;;;;;;;10.07;8.43;;;;;;;7.28;89.82;96657.81;5077898;28;20430;-63
2020/12/17 05:52:14;;;;;;;8.40;7.60;;;;;;;7.39;89.72;96658.28;5075831;28;20413;-64
2020/12/17 05:55:00;;;;;;;7.83;6.97;;;;;;;7.38;88.96;96654.84;5075633;28;20395;-74
2020/12/17 05:57:26;;;;;;;7.60;6.80;;;;;;;7.04;90.61;96655.78;5075366;28;21004;-63
2020/12/17 06:00:04;;;;;;;7.40;6.30;;;;;;;7.16;89.14;96662.03;5074839;28;20529;-64
2020/12/17 06:02:31;;;;;;;8.80;7.00;;;;;;;7.22;89.68;96661.25;5095639;28;20531;-74
2020/12/17 06:05:09;;;;;;;7.30;6.30;;;;;;;7.03;89.70;96664.59;5095661;28;20625;-73
2020/12/17 06:07:40;;;;;;;7.00;6.30;;;;;;;7.01;90.00;96673.63;5092131;28;20506;-64
2020/12/17 06:10:07;;;;;;;6.40;5.80;;;;;;;6.82;90.57;96680.38;5089555;28;20436;-74
2020/12/17 06:12:36;;;;;;;7.37;6.67;;;;;;;6.88;90.73;96682.22;5095646;28;20901;-74
2020/12/17 06:15:05;;;;;;;9.03;6.33;;;;;;;6.87;90.35;96685.00;5093792;28;20497;-68
2020/12/17 06:17:43;;;;;;;6.53;5.97;;;;;;;6.82;89.75;96690.03;5095145;28;20404;-64
2020/12/17 06:20:08;;;;;;;6.93;6.23;;;;;;;7.04;89.02;96686.31;5095464;28;20468;-74
2020/12/17 06:22:34;;;;;;;6.50;5.67;;;;;;;7.00;88.80;96695.53;5095606;28;20436;-64
2020/12/17 06:25:00;;;;;;;6.07;5.47;;;;;;;6.93;89.25;96694.69;5093724;28;20170;-73
2020/12/17 06:27:32;;;;;;;4.87;4.47;;;;;;;6.96;88.97;96696.91;5094811;28;20206;-64
2020/12/17 06:30:06;;;;;;;5.87;5.27;;;;;;;6.86;89.70;96701.69;5072184;28;20199;-63
2020/12/17 06:32:34;;;;;;;5.33;4.90;;;;;;;6.81;90.21;96699.66;5074906;28;20443;-73
2020/12/17 06:35:04;;;;;;;5.60;5.10;;;;;;;6.76;89.95;96703.84;5074952;28;20492;-64
2020/12/17 06:37:30;;;;;;;5.40;4.90;;;;;;;6.70;90.48;96705.44;5073368;28;20760;-73
2020/12/17 06:39:55;;;;;;;5.13;4.63;;;;;;;6.85;90.28;96713.94;5074932;28;20562;-65
2020/12/17 06:42:39;;;;;;;4.33;3.93;;;;;;;7.06;88.24;96699.97;5075998;28;20953;-64
2020/12/17 06:45:25;;;;;;;4.60;4.20;;;;;;;7.13;87.88;96706.84;5073348;28;20235;-64
2020/12/17 06:47:51;;;;;;;6.50;4.40;;;;;;;6.98;89.27;96711.41;5074208;28;20492;-64
2020/12/17 06:50:25;;;;;;;5.10;4.70;;;;;;;7.02;88.24;96711.81;5074537;28;20513;-64
2020/12/17 06:53:04;;;;;;;4.33;4.03;;;;;;;7.03;88.91;96724.66;5054546;28;20226;-64
2020/12/17 06:55:43;;;;;;;5.03;4.37;;;;;;;7.09;88.16;96731.75;5058513;28;20963;-64
2020/12/17 06:58:23;;;;;;;4.33;4.00;;;;;;;6.98;89.20;96728.88;5094362;28;20902;-75
2020/12/17 07:00:52;;;;;;;5.33;3.90;;;;;;;7.15;88.78;96730.16;5094433;28;20423;-74
2020/12/17 07:03:46;;;;;;;5.13;4.73;;;;;;;7.03;88.67;96734.31;5094466;28;20447;-64
2020/12/17 07:06:15;;;;;;;4.47;4.07;;;;;;;7.00;88.58;96743.34;5094763;28;20435;-75
2020/12/17 07:08:41;;;;;;;4.33;3.93;;;;;;;6.94;89.54;96738.09;5092279;28;22388;-74
2020/12/17 07:11:07;;;;;;;4.37;4.00;;;;;;;7.08;88.41;96750.22;5094580;28;20420;-74
2020/12/17 07:13:42;;;;;;;5.43;4.40;;;;;;;7.19;87.89;96744.44;5094280;28;20431;-64
2020/12/17 07:16:18;;;;;;;4.93;4.53;;;;;;;7.24;87.16;96745.47;5094465;28;20413;-74
2020/12/17 07:18:44;;;;;;;4.43;4.03;;;;;;;7.19;87.88;96754.91;5093745;28;20420;-64
2020/12/17 07:21:09;;;;;;;5.60;4.17;;;;;;;7.20;87.60;96754.69;5092270;28;20495;-64
2020/12/17 07:23:39;;;;;;;4.40;4.07;;;;;;;7.14;88.21;96770.34;5094215;28;20195;-75
2020/12/17 07:26:14;;;;;;;5.73;4.43;;;;;;;7.22;87.71;96775.41;5094222;28;20267;-64
2020/12/17 07:28:40;;;;;;;4.43;4.03;;;;;;;7.09;87.80;96772.72;5093782;28;20423;-73
2020/12/17 07:31:07;;;;;;;4.67;4.27;;;;;;;7.10;87.74;96771.75;5092823;28;20455;-74
2020/12/17 07:33:38;;;;;;;4.30;3.90;;;;;;;7.15;87.50;96783.22;5091869;28;20420;-75
2020/12/17 07:36:08;;;;;;;4.00;3.70;;;;;;;7.02;88.75;96782.34;5053648;28;20423;-64
2020/12/17 07:38:33;;;;;;;3.80;3.50;;;;;;;7.04;88.64;96783.78;5053188;28;20446;-74
2020/12/17 07:40:59;;;;;;;4.27;3.87;;;;;;;7.03;88.50;96787.38;5088731;28;20575;-64
2020/12/17 07:43:41;;;;;;;4.50;4.10;;;;;;;6.91;88.45;96786.31;5093916;28;20368;-74
2020/12/17 07:46:08;;;;;;;7.10;4.23;;;;;;;6.88;88.37;96791.09;5093793;28;20163;-64
2020/12/17 07:48:47;;;;;;;4.83;4.33;;;;;;;7.00;88.88;96792.97;5092578;28;20416;-64
2020/12/17 07:51:13;;;;;;;4.13;3.73;;;;;;;7.04;88.30;96801.25;5093924;28;20407;-64
2020/12/17 07:53:40;;;;;;;4.40;3.87;;;;;;;6.97;88.44;96810.84;5093745;28;20404;-74
2020/12/17 07:56:06;;;;;;;5.63;4.20;;;;;;;6.83;88.95;96804.72;5093097;28;20224;-74
2020/12/17 07:58:32;;;;;;;4.20;3.30;;;;;;;6.85;89.27;96818.41;5091888;28;20424;-74
2020/12/17 08:00:58;;;;;;;4.10;3.77;;;;;;;6.92;88.21;96816.63;5090323;28;20546;-63
2020/12/17 08:03:24;;;;;;;4.50;4.10;;;;;;;7.04;88.41;96814.31;5093412;28;20448;-64
2020/12/17 08:05:52;;;;;;;4.13;3.83;;;;;;;7.01;88.41;96822.53;5093375;28;20406;-72
2020/12/17 08:08:18;;;;;;;3.70;3.40;;;;;;;6.92;88.92;96816.63;5093214;28;20396;-74
2020/12/17 08:10:45;;;;;;;4.47;4.13;;;;;;;6.86;88.81;96819.22;5091397;28;20440;-75
2020/12/17 08:13:11;;;;;;;4.67;3.63;;;;;;;6.77;89.34;96821.16;5093365;28;20405;-73
2020/12/17 08:15:37;;;;;;;4.33;3.93;;;;;;;6.66;90.66;96824.28;5086292;28;20830;-72
2020/12/17 08:18:04;;;;;;;4.57;4.17;;;;;;;6.80;90.08;96815.56;5072686;28;20447;-66
2020/12/17 08:20:30;;;;;;;3.57;3.30;;;;;;;6.85;89.78;96812.34;5073017;28;20199;-60
2020/12/17 08:22:56;;;;;;;4.13;3.73;;;;;;;7.08;89.08;96824.16;5073019;28;20872;-68
2020/12/17 08:25:23;;;;;;;4.40;4.00;;;;;;;7.16;89.05;96823.19;5071635;28;20519;-66
2020/12/17 08:27:51;;;;;;;5.00;3.63;;;;;;;7.09;88.91;96828.41;5072585;28;20217;-64
2020/12/17 08:30:18;;;;;;;5.00;3.33;;;;;;;7.20;89.18;96829.66;5071430;28;20449;-61
2020/12/17 08:32:53;;;;;;;3.77;3.40;;;;;;;7.38;88.70;96829.16;5084046;28;20417;-60
2020/12/17 08:35:24;;;;;;;4.50;3.60;;;;;;;7.31;88.85;96829.13;5072923;28;20460;-61
2020/12/17 08:37:51;;;;;;;4.50;3.90;;;;;;;7.55;87.95;96822.59;5072597;28;20887;-61
2020/12/17 08:40:23;;;;;;;4.60;4.20;;;;;;;7.58;88.02;96830.03;5073116;28;20791;-63
2020/12/17 08:42:50;;;;;;;4.07;3.67;;;;;;;7.78;87.42;96826.50;5072687;28;20887;-60
2020/12/17 08:45:19;;;;;;;3.50;3.30;;;;;;;7.75;86.99;96834.75;5072582;28;20409;-61
2020/12/17 08:47:49;;;;;;;4.40;4.00;;;;;;;7.71;87.42;96824.88;5073307;28;20411;-64
2020/12/17 08:50:15;;;;;;;4.07;3.67;;;;;;;7.92;87.40;96827.34;5072719;28;20931;-64
2020/12/17 08:52:42;;;;;;;3.63;2.87;;;;;;;8.07;86.27;96834.03;5072712;28;20774;-63
2020/12/17 08:55:09;;;;;;;3.23;3.03;;;;;;;8.18;85.31;96830.03;5072775;28;20423;-64
2020/12/17 08:57:35;;;;;;;4.37;3.40;;;;;;;8.10;85.78;96838.06;5072252;28;20406;-63
2020/12/17 09:00:01;;;;;;;4.80;3.07;;;;;;;8.15;86.08;96843.53;5071874;28;20442;-61
2020/12/17 09:02:30;;;;;;;3.73;3.10;;;;;;;8.13;86.11;96845.53;5089289;28;20267;-60
2020/12/17 09:04:55;;;;;;;7.23;3.63;;;;;;;8.25;85.57;96842.16;5092911;28;20194;-63
2020/12/17 09:07:28;;;;;;;3.80;3.23;;;;;;;8.10;86.11;96851.13;5092524;28;20504;-64
2020/12/17 09:10:14;;;;;;;2.83;2.63;;;;;;;8.24;85.44;96847.59;5096646;28;20193;-60
2020/12/17 09:12:41;;;;;;;5.47;3.60;;;;;;;8.45;84.59;96851.84;5081674;28;20437;-60
2020/12/17 09:15:08;;;;;;;3.80;3.40;;;;;;;8.35;84.77;96865.34;5076360;28;20415;-63
2020/12/17 09:17:34;;;;;;;3.80;3.47;;;;;;;8.53;84.18;96860.31;5075973;28;20766;-63
2020/12/17 09:20:00;;;;;;;3.33;3.03;;;;;;;8.47;83.93;96868.16;5076220;28;20437;-62
2020/12/17 09:22:33;;;;;;;6.10;4.10;;;;;;;8.54;84.31;96869.78;5076184;28;20411;-61
2020/12/17 09:24:59;;;;;;;4.03;3.63;;;;;;;8.53;84.29;96869.97;5077291;28;20536;-60
2020/12/17 09:27:27;;;;;;;3.40;3.10;;;;;;;8.24;85.21;96873.78;5075684;28;20909;-64
2020/12/17 09:30:00;;;;;;;3.63;3.33;;;;;;;8.33;85.34;96877.81;5076274;28;20205;-63
2020/12/17 09:32:27;;;;;;;3.73;3.37;;;;;;;8.47;85.18;96876.00;5076145;28;20458;-60
2020/12/17 09:35:06;;;;;;;4.87;3.67;;;;;;;8.42;85.27;96888.91;5075991;28;20482;-62
2020/12/17 09:37:32;;;;;;;4.30;3.90;;;;;;;8.39;85.83;96884.84;5075912;28;20409;-60
2020/12/17 09:39:58;;;;;;;5.17;4.77;;;;;;;8.46;84.35;96887.50;5076976;28;20458;-61
2020/12/17 09:42:24;;;;;;;4.80;4.30;;;;;;;8.47;85.02;96878.63;5075955;28;20411;-61
2020/12/17 09:44:50;;;;;;;5.20;4.20;;;;;;;8.39;85.68;96882.22;5075753;28;20244;-60
2020/12/17 09:47:29;;;;;;;3.90;3.60;;;;;;;8.83;83.71;96884.28;5075393;28;20246;-62
2020/12/17 09:50:05;;;;;;;4.87;4.37;;;;;;;8.75;83.91;96887.13;5075968;28;20496;-61
2020/12/17 09:52:30;;;;;;;4.10;3.67;;;;;;;9.00;83.41;96882.91;5076742;28;20434;-65
2020/12/17 09:54:56;;;;;;;6.30;4.10;;;;;;;9.12;82.49;96897.00;5072271;28;20425;-63
2020/12/17 09:57:21;;;;;;;5.30;4.80;;;;;;;8.81;84.52;96892.38;5071735;28;20223;-63
2020/12/17 09:59:47;;;;;;;4.20;3.80;;;;;;;9.00;83.10;96896.00;5071983;28;20205;-63
2020/12/17 10:02:13;;;;;;;5.47;3.97;;;;;;;8.98;83.94;96898.00;5072076;28;20236;-63
2020/12/17 10:04:40;;;;;;;4.70;4.27;;;;;;;9.05;83.98;96902.25;5078179;28;20191;-61
2020/12/17 10:07:09;;;;;;;4.10;3.70;;;;;;;9.27;83.50;96913.31;5091444;28;20409;-62
2020/12/17 10:09:35;;;;;;;5.67;3.60;;;;;;;9.34;82.60;96909.69;5081138;28;20444;-64
2020/12/17 10:12:01;;;;;;;3.47;3.20;;;;;;;9.47;82.29;96900.16;5084879;28;21005;-63
2020/12/17 10:14:28;;;;;;;4.60;4.20;;;;;;;9.63;81.72;96902.34;5071747;28;20175;-62
2020/12/17 10:17:01;;;;;;;4.70;3.70;;;;;;;9.83;80.38;96898.66;5071189;28;20414;-71
2020/12/17 10:19:28;;;;;;;3.60;3.30;;;;;;;9.52;82.18;96901.16;5089525;28;20445;-71
2020/12/17 10:21:54;;;;;;;3.80;3.50;;;;;;;9.45;81.60;96900.38;5080523;28;20467;-66
2020/12/17 10:24:19;;;;;;;4.30;3.90;;;;;;;9.53;81.97;96902.78;5075006;28;20967;-67
2020/12/17 10:26:45;;;;;;;4.43;3.70;;;;;;;9.80;80.90;96909.56;5074538;28;20180;-67
2020/12/17 10:29:10;;;;;;;3.93;3.30;;;;;;;9.93;80.63;96906.88;5074397;28;20203;-66
2020/12/17 10:31:36;;;;;;;4.33;3.70;;;;;;;9.93;79.97;96906.88;5074910;28;20176;-64
2020/12/17 10:34:02;;;;;;;3.47;3.27;;;;;;;10.09;79.44;96897.78;5074396;28;20174;-62
2020/12/17 10:36:27;;;;;;;3.70;3.37;;;;;;;10.17;79.06;96889.66;5079547;28;20177;-57
2020/12/17 10:38:53;;;;;;;4.60;4.20;;;;;;;10.28;79.65;96892.44;5077163;28;20451;-62
2020/12/17 10:41:25;;;;;;;4.00;3.70;;;;;;;10.19;79.50;96893.69;5074691;28;20189;-61
2020/12/17 10:43:52;;;;;;;13.07;8.10;;;;;;;10.36;79.05;96891.38;5074730;28;20704;-62
2020/12/17 10:46:17;;;;;;;4.30;3.83;;;;;;;10.57;77.93;96901.56;5074320;28;20438;-63
2020/12/17 10:48:42;;;;;;;4.03;3.63;;;;;;;10.53;78.42;96900.34;5074449;28;20413;-62
2020/12/17 10:51:08;;;;;;;4.73;3.50;;;;;;;10.54;78.31;96904.63;5075715;28;20637;-63
2020/12/17 10:53:33;;;;;;;4.80;4.40;;;;;;;10.54;78.81;96907.25;5074723;28;20182;-61
2020/12/17 10:55:59;;;;;;;10.20;6.73;;;;;;;10.80;77.83;96903.59;5074470;28;20182;-62
2020/12/17 10:58:24;;;;;;;11.17;6.93;;;;;;;10.91;77.47;96906.38;5093986;28;20576;-62
2020/12/17 11:00:49;;;;;;;17.30;10.40;;;;;;;11.13;77.43;96907.59;5094583;28;20186;-61
2020/12/17 11:03:15;;;;;;;4.80;3.97;;;;;;;11.21;76.61;96914.44;5090996;28;20709;-61
2020/12/17 11:05:40;;;;;;;17.17;12.17;;;;;;;11.42;75.63;96919.28;5084563;28;20206;-62
2020/12/17 11:08:05;;;;;;;9.93;6.07;;;;;;;11.31;75.10;96925.25;5073894;28;20559;-61
2020/12/17 11:10:31;;;;;;;3.70;3.10;;;;;;;10.99;77.45;96916.63;5093200;28;20193;-62
2020/12/17 11:12:57;;;;;;;3.97;3.30;;;;;;;10.81;77.67;96918.38;5091990;28;20636;-62
2020/12/17 11:15:22;;;;;;;4.77;3.33;;;;;;;10.70;77.89;96914.63;5088589;28;20266;-63
2020/12/17 11:17:47;;;;;;;3.80;3.40;;;;;;;10.76;77.50;96916.38;5083667;28;20521;-63
2020/12/17 11:20:13;;;;;;;15.17;10.20;;;;;;;10.70;78.74;96913.81;5086573;28;20714;-62
2020/12/17 11:22:39;;;;;;;3.77;3.43;;;;;;;10.60;78.71;96911.63;5094295;28;20527;-62
2020/12/17 11:25:05;;;;;;;16.20;10.20;;;;;;;10.80;78.72;96912.31;5094177;28;20205;-62
2020/12/17 11:27:31;;;;;;;5.40;4.90;;;;;;;10.97;78.12;96915.22;5093647;28;20423;-61
2020/12/17 11:29:56;;;;;;;3.93;3.53;;;;;;;10.86;78.53;96908.03;5092145;28;20451;-61
2020/12/17 11:32:22;;;;;;;5.17;3.87;;;;;;;10.95;77.89;96910.19;5090505;28;20208;-62
2020/12/17 11:34:48;;;;;;;6.63;4.17;;;;;;;10.95;78.11;96910.19;5093617;28;20283;-62
2020/12/17 11:37:13;;;;;;;4.80;4.00;;;;;;;11.06;78.12;96909.50;5093015;28;20424;-62